TOP > 外国特許検索

外国特許検索

表示件数 詳細検索
特許の状態
出願国

リセット

該当件数 5374件

No. 出願番号
公報番号
出願国
発明の名称
掲載日
更新日
データ提供機関
5301 2003JP004556 WO 2003/093337 世界知的所有権機関(WIPO) HYDROGEL OF (SEMI)INTERPENETRATING NETWORK STRUCTURE AND PROCESS FOR PRODUCING THE SAME 2006/02/03 2008/09/02 北海道大学
5302 2004JP016592 WO 2005/045547 世界知的所有権機関(WIPO) SOLAR PHOTOVOLTAIC POWER GENERATION APPARATUS 2006/01/30 2008/09/02 東京電機大学
5303 2005JP002647 WO 2005/108912 世界知的所有権機関(WIPO) VISUALIZATION SENSOR 新技術説明会 2005/12/09 2008/09/02 金沢大TLO
5304 2005JP008241 WO 2005/105908 世界知的所有権機関(WIPO) METHOD OF DEPOLYMERIZING POLYMER HAVING ESTER BOND IN MAIN CHAIN AND PROCESS FOR PRODUCING POLYMER HAVING ESTER BOND IN MAIN CHAIN FROM DEPOLYMERIZATION PRODUCT 2005/12/09 2008/09/02 慶應義塾大学
5305 2005JP002026 WO 2005/078024 世界知的所有権機関(WIPO) HETEROPOLYCYCLIC COMPOUND AND DYE 新技術説明会 2005/12/02 2008/09/02 四国TLO
5306 2003JP011961 WO 2004/038492 世界知的所有権機関(WIPO) OPTICAL SIGNAL AMPLIFYING THREE-TERMINAL DEVICE, OPTICAL SIGNAL TRANSFER METHOD USING SAME, OPTICAL SIGNAL RELAY DEVICE, AND OPTICAL SIGNAL STORAGE DEVICE 2005/08/12 2010/07/28 科学技術振興機構(JST)
5307 2002JP007378 WO 2003/011337 世界知的所有権機関(WIPO) MEDICINAL COMPOSITIONS CONTAINING Fc RECEPTOR γ-CHAIN ACTIVATOR 2005/05/13 2008/09/02 慶應義塾大学
5308 67500000 6365744 アメリカ合衆国 Process for producing pyridine derivative through reaction of azametallacyclopentadiene with alkyne 2005/04/25 2014/08/27 科学技術振興機構(JST)
5309 86887701 6492480 アメリカ合衆国 Method of polymerizing a silalkylenesiloxane 2005/04/25 2014/08/27 科学技術振興機構(JST)
5310 2002JP004120 WO 2002/088202 世界知的所有権機関(WIPO) POLYMER HAVING UNIQUE OPTICAL PROPERTY AND POLYMERIZABLE MONOMER THEREFOR 2005/04/25 2008/09/01 科学技術振興機構(JST)
5311 2002JP004405 WO 2002/091820 世界知的所有権機関(WIPO) NONHUMAN MODEL ANIMAL OF OLIGODENDROCYTE DEVELOPMENT DISABILITY 2005/04/25 2008/10/15 科学技術振興機構(JST)
5312 2002JP004334 WO 2002/092816 世界知的所有権機関(WIPO) REPLICATION VECTOR SHOWING CELL-SPECIFIC EXPRESSION 2005/04/25 2008/10/15 科学技術振興機構(JST)
5313 2002JP005715 WO 2003/010369 世界知的所有権機関(WIPO) OXIDE HIGH-CRITICAL TEMPERATURE SUPERCONDUCTOR ACICULAR CRYSTAL AND ITS PRODUCTION METHOD 2005/04/25 2008/10/15 科学技術振興機構(JST)
5314 2002JP007676 WO 2003/018804 世界知的所有権機関(WIPO) PROTEINS HAVING EFFECTS OF CONTROLLING CELL MIGRATION AND CELL DEATH 2005/04/25 2008/09/01 科学技術振興機構(JST)
5315 2002JP009050 WO 2003/023378 世界知的所有権機関(WIPO) METHOD FOR ESTIMATING CONCENTRATION OF GENERATING HOTOCHEMICAL OZONE BY THE USE OF PUMP-PROBE METHOD, AND APPARATUS FOR ESTIMATING CONCENTRATION OF GENERATING PHOTOCHEMICAL OZONE UTILIZING THE METHOD 2005/04/25 2008/10/15 科学技術振興機構(JST)
5316 2002JP002555 WO 2003/025664 世界知的所有権機関(WIPO) METHOD FOR PREPARING ORGANIC-INORGANIC COMPOSITE MICROCRYSTAL 2005/04/25 2010/05/18 科学技術振興機構(JST)
5317 2002JP011106 WO 2003/037080 世界知的所有権機関(WIPO) NONHUMAN MODEL ANIMAL OF SYSTEMIC LUPUS ERYTHEMATOSUS 2005/04/25 2008/10/15 科学技術振興機構(JST)
5318 2002JP013303 WO 2003/053910 世界知的所有権機関(WIPO) STABLE ISOTOPE-LABELED AMINO ACID, METHOD OF INTEGRATING THE SAME INTO TARGET PROTEIN, METHOD OF NMR STRUCTURAL ANALYSIS OF PROTEIN AND PROCESS FOR PRODUCING SITE-SELECTIVE STABLE ISOTOPE-LABELED FUMARIC ACID AND TARTARIC ACID 2005/04/25 2008/09/02 科学技術振興機構(JST)
5319 2002JP013683 WO 2003/057888 世界知的所有権機関(WIPO) CELL-SPECIFIC EXPRESSION/REPLICATION VECTOR 2005/04/25 2008/10/15 科学技術振興機構(JST)
5320 2002JP007599 WO 2003/063894 世界知的所有権機関(WIPO) INSULIN RESISTANCE IMPROVING AGENTS 2005/04/25 2008/09/02 科学技術振興機構(JST)
5321 2003JP000762 WO 2003/065117 世界知的所有権機関(WIPO) ENTANGLEMENT PHOTON PAIR GENERATOR 2005/04/25 2010/05/18 科学技術振興機構(JST)
5322 2003JP004435 WO 2003/084894 世界知的所有権機関(WIPO) COMPLEX MIXED CONDUCTOR AND ITS PREPARING METHOD 2005/04/25 2008/09/02 科学技術振興機構(JST)
5323 2000JP001476 WO 2001/004970 世界知的所有権機関(WIPO) FERROMAGNETIC DOUBLE QUANTUM WELL TUNNEL MAGNETO-RESISTANCE DEVICE 2005/04/25 2008/10/15 科学技術振興機構(JST)
5324 2000JP005813 WO 2001/020396 世界知的所有権機関(WIPO) ULTRAWIDE-BAND LIGHT PULSE GENERATOR 2005/04/25 2010/05/18 科学技術振興機構(JST)
5325 2001JP001479 WO 2001/064611 世界知的所有権機関(WIPO) POLYACENE DERIVATIVES AND PRODUCTION THEREOF 新技術説明会 2005/04/25 2008/09/02 科学技術振興機構(JST)
5326 2001JP001871 WO 2001/066736 世界知的所有権機関(WIPO) PROTEINS NECTIN-3 2005/04/25 2008/10/15 科学技術振興機構(JST)
5327 2001JP005165 WO 2002/001249 世界知的所有権機関(WIPO) CORPUSCULAR BEAM IMAGE DETECTOR USING GAS AMPLIFICATION BY PIXEL TYPE ELECTRODES 2005/04/25 2008/10/15 科学技術振興機構(JST)
5328 2000JP006867 WO 2002/003132 世界知的所有権機関(WIPO) WAVELENGTH CONVERTER 2005/04/25 2008/10/15 科学技術振興機構(JST)
5329 2001JP007196 WO 2002/015680 世界知的所有権機関(WIPO) TYPE III ALLERGIC INFLAMMATION MODEL ANIMAL 2005/04/25 2008/10/15 科学技術振興機構(JST)
5330 2001JP007234 WO 2002/018274 世界知的所有権機関(WIPO) IRIDIUM-BASED PYROCHLORE TYPE ELECTRICALLY CONDUCTIVE SUBSTANCE AND METHOD FOR PREPARATION THEREOF 2005/04/25 2008/09/02 科学技術振興機構(JST)
5331 2001JP007681 WO 2002/020913 世界知的所有権機関(WIPO) BRICK LAYING STRUCTURE, BRICK LAYING METHOD, AND BRICK MANUFACTURING METHOD 2005/04/25 2008/10/15 科学技術振興機構(JST)
5332 2003JP005727 WO 2003/095519 世界知的所有権機関(WIPO) NOVEL POLYESTER HAVING pi-CONJUGATED GROUP IN SIDE CHAIN AND CHARGE TRANSPORTING MATERIAL USING THE SAME 2005/04/25 2008/09/02 科学技術振興機構(JST)
5333 2003JP006518 WO 2003/099319 世界知的所有権機関(WIPO) PREVENTIVE/REMEDY FOR ARTERIOSCLEROSIS 2005/04/25 2008/09/02 科学技術振興機構(JST)
5334 78470497 5705738 アメリカ合衆国 Precise shear-stress measurement apparatus 実績あり 2005/02/22 2014/09/11 科学技術振興機構(JST)
5335 78884097 5998313 アメリカ合衆国 Cesium-lithium borate crystal 実績あり 2005/02/22 2014/09/11 科学技術振興機構(JST)
5336 83170801 6339159 アメリカ合衆国 Optically active α-aminonitrile and process for producing α-amino acid 2005/02/22 2014/08/26 科学技術振興機構(JST)
5337 62219600 6352954 アメリカ合衆国 Microencapsulated lewis acid 実績あり 2005/02/22 2014/08/26 科学技術振興機構(JST)
5338 64604200 6417368 アメリカ合衆国 AMINE DERIVATIVE FIXED TO RESIN AND METHOD FOR SYNTHESIZING β-AMINOCARBONYL COMPOUND IN A SOLID PHASE 2005/02/22 2010/05/18 科学技術振興機構(JST)
5339 67436200 06420372 アメリカ合衆国 Febrifugine, isofebrifugine and method for producing the same 2005/02/22 2013/08/07 科学技術振興機構(JST)
5340 64644800 6420553 アメリカ合衆国 Method for preparing metal complex of porphyrin 2005/02/22 2014/08/27 科学技術振興機構(JST)
5341 80774501 6465236 アメリカ合衆国 Thermostable collagen-digesting enzyme, novel microorganism producing the enzyme and process for producing the enzyme 2005/02/22 2014/08/27 科学技術振興機構(JST)
5342 88940701 6476250 アメリカ合衆国 OPTICALLY ACTIVE FLUORINATED BINAPHTHOL DERIVATIVE 2005/02/22 2004/12/02 科学技術振興機構(JST)
5343 74423901 6500278 アメリカ合衆国 Hot rolled electrical steel sheet excellent in magnetic characteristics and corrosion resistance and method for production thereof 2005/02/22 2014/08/27 科学技術振興機構(JST)
5344 89042401 6552799 アメリカ合衆国 Two-arm sagnac interferometer with two beam splitters 2005/02/22 2014/08/27 科学技術振興機構(JST)
5345 83040101 6593088 アメリカ合衆国 REVERSIBLE PHOTOCOUPLING NUCLEIC ACID AND PHOSPHOROAMIDITE 実績あり 2005/02/22 2010/05/18 科学技術振興機構(JST)
5346 2001JP007197 WO 2002/064785 世界知的所有権機関(WIPO) NOVEL CLOCK GENE Bmal2 2005/02/22 2008/10/14 科学技術振興機構(JST)
5347 2001JP011434 WO 2002/066280 世界知的所有権機関(WIPO) IN-WHEEL MOTOR FOR ELECTRIC AUTOMOBILES 2005/02/22 2008/10/14 科学技術振興機構(JST)
5348 2001JP009360 WO 2002/068360 世界知的所有権機関(WIPO) METHOD FOR PRODUCING SIC FIBER/SIC COMPOSITE MATERIAL HAVING HIGH STRENGTH 2005/02/22 2008/10/15 科学技術振興機構(JST)
5349 2002JP002309 WO 2002/072643 世界知的所有権機関(WIPO) POLYMER-SUPPORTED ARYLBIS(PERFLUOROALKYLSULFONYL)-METHANE 2005/02/22 2010/05/18 科学技術振興機構(JST)
5350 2002JP002242 WO 2002/073707 世界知的所有権機関(WIPO) LOW-DIMENSIONAL PLASMON LIGHT EMITTING DEVICE 2005/02/22 2008/10/15 科学技術振興機構(JST)
5351 2002JP002488 WO 2002/077331 世界知的所有権機関(WIPO) METHOD FOR FLATTENING SURFACE OF OXIDE CRYSTAL TO ULTRA HIGH DEGREE 2005/02/22 2008/09/01 科学技術振興機構(JST)
5352 2001JP009363 WO 2002/081405 世界知的所有権機関(WIPO) METHOD FOR PRODUCING SIC FIBER-REINFORCED SIC COMPOSITE MATERIAL BY MEANS OF HOT PRESS 2005/02/22 2008/10/15 科学技術振興機構(JST)
5353 2001JP010808 WO 2002/086178 世界知的所有権機関(WIPO) CU-BE BASE AMORPHOUS ALLOY 2005/02/22 2008/10/15 科学技術振興機構(JST)
5354 2002JP007734 WO 2003/011866 世界知的所有権機関(WIPO) PORPHYRIN-METAL COMPLEXES AND OXYGEN INFUSIONS CONTAINING THE SAME 2005/02/22 2008/10/15 科学技術振興機構(JST)
5355 2002JP000118 WO 2003/014354 世界知的所有権機関(WIPO) TYROSYL-TRNA SYNTHASE VARIANTS 2005/02/22 2008/09/01 科学技術振興機構(JST)
5356 2002JP008559 WO 2003/018525 世界知的所有権機関(WIPO) PHOTORESPONSIVE POLYMER, BUILT-UP TYPE DIACETYLENE POLYMER, CRYSTALS OF AMMONIUM CARBOXYLATES, AND PROCESSES FOR PRODUCTION OF THEM 2005/02/22 2008/10/15 科学技術振興機構(JST)
5357 2002JP009049 WO 2003/023094 世界知的所有権機関(WIPO) OXIDE HIGH-TEMPERATURE SUPERCONDUCTOR AND ITS PRODUCTION METHOD 2005/02/22 2008/09/01 科学技術振興機構(JST)
5358 2002JP011105 WO 2003/037079 世界知的所有権機関(WIPO) NONHUMAN MODEL ANIMAL OF Th2-MEDIATED HYPERIMMUNE RESPONSE 2005/02/22 2008/10/15 科学技術振興機構(JST)
5359 2002JP012053 WO 2003/043649 世界知的所有権機関(WIPO) REMOVAL PROMOTERS AND INHIBITOR FOR APOPTOSIS CELLS IN VIVO 2005/02/22 2008/10/15 科学技術振興機構(JST)
5360 2002JP012273 WO 2003/046519 世界知的所有権機関(WIPO) DELAY TIME MODULATION FEMTOSECOND TIME-RESOLVED SCANNING PROBE MICROSCOPE APPARATUS 2005/02/22 2008/09/01 科学技術振興機構(JST)
5361 2002JP006773 WO 2003/064474 世界知的所有権機関(WIPO) PRODUCTION OF HYBRIDOMA PRODUCING ANTIHUMAN CENP-A PEPTIDE MONOCLONAL ANTIBODY AND METHOD OF USING THE SAME 2005/02/22 2008/09/02 科学技術振興機構(JST)
5362 2003JP000705 WO 2003/071280 世界知的所有権機関(WIPO) FLUORESCENT SENSOR FOR PHOSPHATE ION AND PHOSPHORYLATED PEPTIDE 2005/02/22 2008/10/15 科学技術振興機構(JST)
5363 2003JP000716 WO 2003/072848 世界知的所有権機関(WIPO) METHOD AND DEVICE FOR MANUFACTURING SEMICONDUCTOR OR INSULATOR/METALLIC LAMINAR COMPOSITE CLUSTER 2005/02/22 2008/10/15 科学技術振興機構(JST)
5364 2003JP002257 WO 2003/074749 世界知的所有権機関(WIPO) SOFT MAGNETIC METALLIC GLASS ALLOY 2005/02/22 2008/10/15 科学技術振興機構(JST)
5365 2003JP002860 WO 2003/076072 世界知的所有権機関(WIPO) PRACTICAL CHIRAL ZIRCONIUM CATALYST 2005/02/22 2008/09/02 科学技術振興機構(JST)
5366 2003JP002715 WO 2003/076396 世界知的所有権機関(WIPO) PROCESS FOR PRODUCING β-AMINOKETONE AND CATALYST THEREFOR 2005/02/22 2008/10/15 科学技術振興機構(JST)
5367 2003JP002862 WO 2003/076410 世界知的所有権機関(WIPO) PROCESS FOR ASYMMETRIC INTRAMOLECULAR [3+2] CYCLO- ADDITION OF HYDRAZONES 2005/02/22 2008/09/02 科学技術振興機構(JST)
5368 2002JP001186 WO 2002/068104 世界知的所有権機関(WIPO) PROCESS FOR PRODUCING EMULSION AND MICROCAPSULES AND APPARATUS THEREFOR 2004/12/22 2010/05/18 科学技術振興機構(JST)
5369 2003JP001572 WO 2003/068969 世界知的所有権機関(WIPO) MOUSE SPERMATOGENESIS GENES, HUMAN MALE STERILITY-ASSOCIATED GENES AND DIAGNOSTIC SYSTEM USING THE SAME 2004/12/22 2008/09/02 科学技術振興機構(JST)
5370 1999JP006294 WO 2000/028015 世界知的所有権機関(WIPO) MUTAGENESIS METHOD 2004/12/22 2008/09/02 科学技術振興機構(JST)
5371 2000JP001816 WO 2000/058784 世界知的所有権機関(WIPO) METHOD FOR EXTRA-HIGH SPEED TRANSFORMATION OF TIME SIGNAL INTO TWO-DIMENSIONAL SPACE SIGNAL 2004/12/22 2010/05/18 科学技術振興機構(JST)
5372 2000JP004815 WO 2001/005989 世界知的所有権機関(WIPO) METHOD OF CONSTRUCTING RECOMBINANT ADENOVIRUS VECTOR 2004/12/22 2008/10/15 科学技術振興機構(JST)
5373 2001JP008893 WO 2002/033074 世界知的所有権機関(WIPO) ARTIFICIAL PROTEIN HAVING POTENTIATED IMMUNOGENICITY OF EPITOPE 2004/12/22 2008/10/15 科学技術振興機構(JST)
5374 2001JP009082 WO 2002/035727 世界知的所有権機関(WIPO) SYSTEM IDENTIFYING METHOD 2004/12/22 2008/10/15 科学技術振興機構(JST)

(54/54ページ)

PAGE TOP